Las Vegas, Nevada
Traffic Map
Current Weather Conditions
Las Vegas, Nevada
Clear
Clear
104°
Feels Like: 104°
Wind Chill: 104° Ceiling: Unl
Heat Index: 104° Visibility: 10mi
Dew Point: 33° Wind: 6mph
Humidity: 9% Direction: ° ()
Pressure: 29.72in Gusts: 0mph
Raw Report DataKLAS 022156Z VRB05KT 10SM CLR 40/01 A2972 RMK AO2 SLP031 T04000006 $
Traffic Incident Summary
Active as of:
Severity:
Category:
InformationThere was an issue retrieving the traffic information for this location. Please try a different location or try again shortly.
Advertisements
Track Severe Weather on mobile